sensor_id;sensor_type;location;lat;lon;timestamp;temperature;humidity
17415;DHT22;8825;48.086;16.426;2022-07-29T00:01:26;23.00;54.90
17415;DHT22;8825;48.086;16.426;2022-07-29T00:03:54;23.00;55.10
17415;DHT22;8825;48.086;16.426;2022-07-29T00:06:21;22.90;55.30
17415;DHT22;8825;48.086;16.426;2022-07-29T00:08:49;22.90;55.20
17415;DHT22;8825;48.086;16.426;2022-07-29T00:11:16;22.90;55.30
17415;DHT22;8825;48.086;16.426;2022-07-29T00:13:44;22.80;55.30
17415;DHT22;8825;48.086;16.426;2022-07-29T00:16:11;22.80;55.30
17415;DHT22;8825;48.086;16.426;2022-07-29T00:18:39;22.70;55.90
17415;DHT22;8825;48.086;16.426;2022-07-29T00:21:06;22.70;55.40
17415;DHT22;8825;48.086;16.426;2022-07-29T00:23:34;22.70;55.50
17415;DHT22;8825;48.086;16.426;2022-07-29T00:26:02;22.70;55.60
17415;DHT22;8825;48.086;16.426;2022-07-29T00:28:29;22.70;55.80
17415;DHT22;8825;48.086;16.426;2022-07-29T00:30:57;22.60;55.90
17415;DHT22;8825;48.086;16.426;2022-07-29T00:33:24;22.60;56.10
17415;DHT22;8825;48.086;16.426;2022-07-29T00:35:52;22.50;56.20
17415;DHT22;8825;48.086;16.426;2022-07-29T00:38:19;22.50;56.40
17415;DHT22;8825;48.086;16.426;2022-07-29T00:40:47;22.40;56.50
17415;DHT22;8825;48.086;16.426;2022-07-29T00:43:15;22.40;56.50
17415;DHT22;8825;48.086;16.426;2022-07-29T00:45:44;22.30;56.60
17415;DHT22;8825;48.086;16.426;2022-07-29T00:48:12;22.30;56.70
17415;DHT22;8825;48.086;16.426;2022-07-29T00:50:39;22.20;56.80
17415;DHT22;8825;48.086;16.426;2022-07-29T00:53:08;22.20;57.00
17415;DHT22;8825;48.086;16.426;2022-07-29T00:55:35;22.20;57.00
17415;DHT22;8825;48.086;16.426;2022-07-29T00:58:03;22.20;57.00
17415;DHT22;8825;48.086;16.426;2022-07-29T01:00:31;22.10;57.00
17415;DHT22;8825;48.086;16.426;2022-07-29T01:02:59;22.10;57.10
17415;DHT22;8825;48.086;16.426;2022-07-29T01:05:28;22.10;57.30
17415;DHT22;8825;48.086;16.426;2022-07-29T01:07:57;22.00;57.40
17415;DHT22;8825;48.086;16.426;2022-07-29T01:10:26;22.00;57.50
17415;DHT22;8825;48.086;16.426;2022-07-29T01:12:57;21.90;57.50
17415;DHT22;8825;48.086;16.426;2022-07-29T01:15:24;21.80;57.50
17415;DHT22;8825;48.086;16.426;2022-07-29T01:18:14;21.80;57.50
17415;DHT22;8825;48.086;16.426;2022-07-29T01:29:06;21.60;57.80
17415;DHT22;8825;48.086;16.426;2022-07-29T01:31:54;21.50;58.50
17415;DHT22;8825;48.086;16.426;2022-07-29T01:34:23;21.50;58.10
17415;DHT22;8825;48.086;16.426;2022-07-29T01:37:01;21.50;58.10
17415;DHT22;8825;48.086;16.426;2022-07-29T01:39:35;21.40;58.20
17415;DHT22;8825;48.086;16.426;2022-07-29T01:42:58;21.40;58.20
17415;DHT22;8825;48.086;16.426;2022-07-29T01:47:44;21.40;58.30
17415;DHT22;8825;48.086;16.426;2022-07-29T01:50:14;21.30;58.40
17415;DHT22;8825;48.086;16.426;2022-07-29T01:52:52;21.30;58.40
17415;DHT22;8825;48.086;16.426;2022-07-29T01:55:21;21.30;58.50
17415;DHT22;8825;48.086;16.426;2022-07-29T01:57:49;21.30;58.60
17415;DHT22;8825;48.086;16.426;2022-07-29T02:00:17;21.30;58.60
17415;DHT22;8825;48.086;16.426;2022-07-29T02:02:47;21.30;58.60
17415;DHT22;8825;48.086;16.426;2022-07-29T02:05:17;21.30;58.70
17415;DHT22;8825;48.086;16.426;2022-07-29T02:07:47;21.30;58.70
17415;DHT22;8825;48.086;16.426;2022-07-29T02:10:16;21.30;58.80
17415;DHT22;8825;48.086;16.426;2022-07-29T02:12:46;21.30;58.80
17415;DHT22;8825;48.086;16.426;2022-07-29T02:15:16;21.30;58.90
17415;DHT22;8825;48.086;16.426;2022-07-29T02:17:48;21.30;59.00
17415;DHT22;8825;48.086;16.426;2022-07-29T02:20:16;21.30;59.00
17415;DHT22;8825;48.086;16.426;2022-07-29T02:22:44;21.30;59.00
17415;DHT22;8825;48.086;16.426;2022-07-29T02:25:14;21.30;59.00
17415;DHT22;8825;48.086;16.426;2022-07-29T02:27:43;21.30;59.10
17415;DHT22;8825;48.086;16.426;2022-07-29T02:30:12;21.20;59.00
17415;DHT22;8825;48.086;16.426;2022-07-29T02:32:41;21.20;59.00
17415;DHT22;8825;48.086;16.426;2022-07-29T02:35:09;21.20;59.00
17415;DHT22;8825;48.086;16.426;2022-07-29T02:37:39;21.20;59.10
17415;DHT22;8825;48.086;16.426;2022-07-29T02:40:11;21.20;59.10
17415;DHT22;8825;48.086;16.426;2022-07-29T02:42:41;21.20;59.20
17415;DHT22;8825;48.086;16.426;2022-07-29T02:45:10;21.20;59.20
17415;DHT22;8825;48.086;16.426;2022-07-29T02:47:40;21.20;59.50
17415;DHT22;8825;48.086;16.426;2022-07-29T02:50:29;21.20;59.30
17415;DHT22;8825;48.086;16.426;2022-07-29T02:53:12;21.10;59.20
17415;DHT22;8825;48.086;16.426;2022-07-29T02:55:46;21.10;59.40
17415;DHT22;8825;48.086;16.426;2022-07-29T02:58:21;21.10;59.50
17415;DHT22;8825;48.086;16.426;2022-07-29T03:00:48;21.10;59.60
17415;DHT22;8825;48.086;16.426;2022-07-29T03:03:19;21.10;59.50
17415;DHT22;8825;48.086;16.426;2022-07-29T03:05:48;21.00;60.30
17415;DHT22;8825;48.086;16.426;2022-07-29T03:08:16;21.00;59.70
17415;DHT22;8825;48.086;16.426;2022-07-29T03:10:45;20.90;59.60
17415;DHT22;8825;48.086;16.426;2022-07-29T03:13:14;20.90;59.70
17415;DHT22;8825;48.086;16.426;2022-07-29T03:15:45;20.90;59.60
17415;DHT22;8825;48.086;16.426;2022-07-29T03:18:14;20.80;59.50
17415;DHT22;8825;48.086;16.426;2022-07-29T03:20:42;20.80;59.60
17415;DHT22;8825;48.086;16.426;2022-07-29T03:23:10;20.70;59.70
17415;DHT22;8825;48.086;16.426;2022-07-29T03:25:37;20.70;59.70
17415;DHT22;8825;48.086;16.426;2022-07-29T03:28:05;20.70;59.80
17415;DHT22;8825;48.086;16.426;2022-07-29T03:30:33;20.60;59.90
17415;DHT22;8825;48.086;16.426;2022-07-29T03:33:00;20.60;59.90
17415;DHT22;8825;48.086;16.426;2022-07-29T03:35:28;20.60;60.00
17415;DHT22;8825;48.086;16.426;2022-07-29T03:37:58;20.50;60.10
17415;DHT22;8825;48.086;16.426;2022-07-29T03:40:33;20.50;60.20
17415;DHT22;8825;48.086;16.426;2022-07-29T03:43:02;20.50;60.30
17415;DHT22;8825;48.086;16.426;2022-07-29T03:45:31;20.50;60.40
17415;DHT22;8825;48.086;16.426;2022-07-29T03:48:09;20.50;60.70
17415;DHT22;8825;48.086;16.426;2022-07-29T03:50:33;20.50;60.70
17415;DHT22;8825;48.086;16.426;2022-07-29T03:53:02;20.50;60.80
17415;DHT22;8825;48.086;16.426;2022-07-29T03:55:33;20.50;60.80
17415;DHT22;8825;48.086;16.426;2022-07-29T03:58:01;20.50;60.90
17415;DHT22;8825;48.086;16.426;2022-07-29T04:00:30;20.50;61.00
17415;DHT22;8825;48.086;16.426;2022-07-29T04:02:58;20.50;61.10
17415;DHT22;8825;48.086;16.426;2022-07-29T04:05:26;20.50;61.20
17415;DHT22;8825;48.086;16.426;2022-07-29T04:07:53;20.40;61.20
17415;DHT22;8825;48.086;16.426;2022-07-29T04:10:21;20.40;61.20
17415;DHT22;8825;48.086;16.426;2022-07-29T04:12:49;20.40;61.30
17415;DHT22;8825;48.086;16.426;2022-07-29T04:15:17;20.40;61.30
17415;DHT22;8825;48.086;16.426;2022-07-29T04:17:44;20.40;61.30
17415;DHT22;8825;48.086;16.426;2022-07-29T04:20:12;20.40;61.50
17415;DHT22;8825;48.086;16.426;2022-07-29T04:22:40;20.40;62.50
17415;DHT22;8825;48.086;16.426;2022-07-29T04:25:08;20.30;61.70
17415;DHT22;8825;48.086;16.426;2022-07-29T04:27:36;20.30;61.70
17415;DHT22;8825;48.086;16.426;2022-07-29T04:30:06;20.30;61.90
17415;DHT22;8825;48.086;16.426;2022-07-29T04:32:33;20.30;62.20
17415;DHT22;8825;48.086;16.426;2022-07-29T04:35:01;20.20;62.50
17415;DHT22;8825;48.086;16.426;2022-07-29T04:37:28;20.20;62.80
17415;DHT22;8825;48.086;16.426;2022-07-29T04:39:56;20.20;63.00
17415;DHT22;8825;48.086;16.426;2022-07-29T04:42:23;20.20;63.20
17415;DHT22;8825;48.086;16.426;2022-07-29T04:44:51;20.20;63.30
17415;DHT22;8825;48.086;16.426;2022-07-29T04:47:18;20.20;63.90
17415;DHT22;8825;48.086;16.426;2022-07-29T04:49:46;20.30;63.90
17415;DHT22;8825;48.086;16.426;2022-07-29T04:52:13;20.30;63.80
17415;DHT22;8825;48.086;16.426;2022-07-29T04:54:41;20.40;63.90
17415;DHT22;8825;48.086;16.426;2022-07-29T04:57:08;20.40;63.90
17415;DHT22;8825;48.086;16.426;2022-07-29T04:59:36;20.50;63.80
17415;DHT22;8825;48.086;16.426;2022-07-29T05:02:04;20.50;63.80
17415;DHT22;8825;48.086;16.426;2022-07-29T05:04:31;20.60;63.90
17415;DHT22;8825;48.086;16.426;2022-07-29T05:06:59;20.60;63.90
17415;DHT22;8825;48.086;16.426;2022-07-29T05:09:26;20.70;63.90
17415;DHT22;8825;48.086;16.426;2022-07-29T05:11:54;20.80;63.70
17415;DHT22;8825;48.086;16.426;2022-07-29T05:14:21;20.90;63.40
17415;DHT22;8825;48.086;16.426;2022-07-29T05:16:49;20.90;63.20
17415;DHT22;8825;48.086;16.426;2022-07-29T05:19:17;21.00;63.00
17415;DHT22;8825;48.086;16.426;2022-07-29T05:21:45;21.10;63.10
17415;DHT22;8825;48.086;16.426;2022-07-29T05:24:13;21.20;63.00
17415;DHT22;8825;48.086;16.426;2022-07-29T05:26:40;21.30;63.10
17415;DHT22;8825;48.086;16.426;2022-07-29T05:29:08;21.40;62.90
17415;DHT22;8825;48.086;16.426;2022-07-29T05:31:36;21.50;62.90
17415;DHT22;8825;48.086;16.426;2022-07-29T05:34:03;21.60;62.80
17415;DHT22;8825;48.086;16.426;2022-07-29T05:36:31;21.70;62.60
17415;DHT22;8825;48.086;16.426;2022-07-29T05:38:58;21.80;62.40
17415;DHT22;8825;48.086;16.426;2022-07-29T05:41:26;21.90;62.30
17415;DHT22;8825;48.086;16.426;2022-07-29T05:43:54;22.00;62.10
17415;DHT22;8825;48.086;16.426;2022-07-29T05:46:21;22.10;61.90
17415;DHT22;8825;48.086;16.426;2022-07-29T05:48:49;22.20;62.40
17415;DHT22;8825;48.086;16.426;2022-07-29T05:51:17;22.30;61.10
17415;DHT22;8825;48.086;16.426;2022-07-29T05:53:44;22.40;60.80
17415;DHT22;8825;48.086;16.426;2022-07-29T05:56:12;22.60;60.60
17415;DHT22;8825;48.086;16.426;2022-07-29T05:58:39;22.70;60.30
17415;DHT22;8825;48.086;16.426;2022-07-29T06:01:07;22.80;60.00
17415;DHT22;8825;48.086;16.426;2022-07-29T06:03:35;23.00;59.80
17415;DHT22;8825;48.086;16.426;2022-07-29T06:06:04;23.10;59.50
17415;DHT22;8825;48.086;16.426;2022-07-29T06:08:32;23.20;59.30
17415;DHT22;8825;48.086;16.426;2022-07-29T06:11:00;23.40;59.10
17415;DHT22;8825;48.086;16.426;2022-07-29T06:13:28;23.50;59.30
17415;DHT22;8825;48.086;16.426;2022-07-29T06:15:56;23.60;58.70
17415;DHT22;8825;48.086;16.426;2022-07-29T06:18:23;23.80;58.50
17415;DHT22;8825;48.086;16.426;2022-07-29T06:20:51;23.90;58.20
17415;DHT22;8825;48.086;16.426;2022-07-29T06:23:20;24.00;57.90
17415;DHT22;8825;48.086;16.426;2022-07-29T06:25:48;24.20;57.70
17415;DHT22;8825;48.086;16.426;2022-07-29T06:28:15;24.30;57.40
17415;DHT22;8825;48.086;16.426;2022-07-29T06:30:43;24.40;57.10
17415;DHT22;8825;48.086;16.426;2022-07-29T06:33:15;24.40;56.90
17415;DHT22;8825;48.086;16.426;2022-07-29T06:35:41;24.50;56.70
17415;DHT22;8825;48.086;16.426;2022-07-29T06:38:10;24.60;56.40
17415;DHT22;8825;48.086;16.426;2022-07-29T06:40:43;24.70;56.30
17415;DHT22;8825;48.086;16.426;2022-07-29T06:43:39;24.80;56.10
17415;DHT22;8825;48.086;16.426;2022-07-29T06:46:09;24.80;55.80
17415;DHT22;8825;48.086;16.426;2022-07-29T06:48:39;24.90;55.60
17415;DHT22;8825;48.086;16.426;2022-07-29T06:51:09;25.00;55.20
17415;DHT22;8825;48.086;16.426;2022-07-29T06:53:40;25.10;55.10
17415;DHT22;8825;48.086;16.426;2022-07-29T06:56:07;25.20;54.90
17415;DHT22;8825;48.086;16.426;2022-07-29T06:58:36;25.30;54.60
17415;DHT22;8825;48.086;16.426;2022-07-29T07:01:04;25.40;54.40
17415;DHT22;8825;48.086;16.426;2022-07-29T07:03:32;25.50;54.30
17415;DHT22;8825;48.086;16.426;2022-07-29T07:06:00;25.50;54.00
17415;DHT22;8825;48.086;16.426;2022-07-29T07:08:27;25.60;54.00
17415;DHT22;8825;48.086;16.426;2022-07-29T07:10:55;25.70;53.70
17415;DHT22;8825;48.086;16.426;2022-07-29T07:13:23;25.70;53.50
17415;DHT22;8825;48.086;16.426;2022-07-29T07:15:51;25.80;53.20
17415;DHT22;8825;48.086;16.426;2022-07-29T07:18:19;25.90;53.10
17415;DHT22;8825;48.086;16.426;2022-07-29T07:20:46;26.00;52.90
17415;DHT22;8825;48.086;16.426;2022-07-29T07:23:14;26.10;52.70
17415;DHT22;8825;48.086;16.426;2022-07-29T07:25:41;26.10;52.50
17415;DHT22;8825;48.086;16.426;2022-07-29T07:28:09;26.10;52.30
17415;DHT22;8825;48.086;16.426;2022-07-29T07:30:36;26.20;52.30
17415;DHT22;8825;48.086;16.426;2022-07-29T07:33:04;26.20;51.60
17415;DHT22;8825;48.086;16.426;2022-07-29T07:35:32;26.20;51.30
17415;DHT22;8825;48.086;16.426;2022-07-29T07:37:59;26.30;51.40
17415;DHT22;8825;48.086;16.426;2022-07-29T07:40:27;26.40;51.40
17415;DHT22;8825;48.086;16.426;2022-07-29T07:42:54;26.40;51.20
17415;DHT22;8825;48.086;16.426;2022-07-29T07:45:22;26.50;51.00
17415;DHT22;8825;48.086;16.426;2022-07-29T07:47:50;26.60;51.00
17415;DHT22;8825;48.086;16.426;2022-07-29T07:50:17;26.70;50.80
17415;DHT22;8825;48.086;16.426;2022-07-29T07:52:50;26.90;50.70
17415;DHT22;8825;48.086;16.426;2022-07-29T07:55:19;27.00;50.50
17415;DHT22;8825;48.086;16.426;2022-07-29T07:57:47;27.00;50.10
17415;DHT22;8825;48.086;16.426;2022-07-29T08:00:15;27.10;49.50
17415;DHT22;8825;48.086;16.426;2022-07-29T08:02:43;27.10;49.30
17415;DHT22;8825;48.086;16.426;2022-07-29T08:05:13;27.10;49.40
17415;DHT22;8825;48.086;16.426;2022-07-29T08:07:46;27.20;50.10
17415;DHT22;8825;48.086;16.426;2022-07-29T08:10:17;27.30;49.30
17415;DHT22;8825;48.086;16.426;2022-07-29T08:12:47;27.30;48.80
17415;DHT22;8825;48.086;16.426;2022-07-29T08:15:14;27.30;48.30
17415;DHT22;8825;48.086;16.426;2022-07-29T08:17:42;27.40;47.90
17415;DHT22;8825;48.086;16.426;2022-07-29T08:20:10;27.40;47.90
17415;DHT22;8825;48.086;16.426;2022-07-29T08:22:37;27.50;48.10
17415;DHT22;8825;48.086;16.426;2022-07-29T08:25:06;27.60;48.20
17415;DHT22;8825;48.086;16.426;2022-07-29T08:27:33;27.70;48.10
17415;DHT22;8825;48.086;16.426;2022-07-29T08:30:01;27.80;47.90
17415;DHT22;8825;48.086;16.426;2022-07-29T08:32:28;27.90;47.50
17415;DHT22;8825;48.086;16.426;2022-07-29T08:34:57;28.00;47.20
17415;DHT22;8825;48.086;16.426;2022-07-29T08:37:25;28.20;46.10
17415;DHT22;8825;48.086;16.426;2022-07-29T08:39:52;28.30;45.70
17415;DHT22;8825;48.086;16.426;2022-07-29T08:42:20;28.60;45.50
17415;DHT22;8825;48.086;16.426;2022-07-29T08:44:49;29.00;45.30
17415;DHT22;8825;48.086;16.426;2022-07-29T08:47:17;29.40;45.10
17415;DHT22;8825;48.086;16.426;2022-07-29T08:49:45;29.80;44.40
17415;DHT22;8825;48.086;16.426;2022-07-29T08:52:14;30.30;43.80
17415;DHT22;8825;48.086;16.426;2022-07-29T08:54:44;30.60;43.10
17415;DHT22;8825;48.086;16.426;2022-07-29T08:57:16;31.00;42.60
17415;DHT22;8825;48.086;16.426;2022-07-29T08:59:46;31.20;41.50
17415;DHT22;8825;48.086;16.426;2022-07-29T09:02:22;31.50;41.40
17415;DHT22;8825;48.086;16.426;2022-07-29T09:04:50;31.90;40.70
17415;DHT22;8825;48.086;16.426;2022-07-29T09:07:18;32.00;40.00
17415;DHT22;8825;48.086;16.426;2022-07-29T09:09:46;32.40;39.90
17415;DHT22;8825;48.086;16.426;2022-07-29T09:12:14;32.70;39.60
17415;DHT22;8825;48.086;16.426;2022-07-29T09:14:43;33.00;37.90
17415;DHT22;8825;48.086;16.426;2022-07-29T09:17:11;33.30;37.80
17415;DHT22;8825;48.086;16.426;2022-07-29T09:19:38;33.60;37.30
17415;DHT22;8825;48.086;16.426;2022-07-29T09:22:06;33.90;36.90
17415;DHT22;8825;48.086;16.426;2022-07-29T09:24:38;34.00;36.60
17415;DHT22;8825;48.086;16.426;2022-07-29T09:27:12;34.00;36.40
17415;DHT22;8825;48.086;16.426;2022-07-29T09:29:39;33.90;36.10
17415;DHT22;8825;48.086;16.426;2022-07-29T09:32:09;33.60;36.30
17415;DHT22;8825;48.086;16.426;2022-07-29T09:34:37;33.40;36.50
17415;DHT22;8825;48.086;16.426;2022-07-29T09:37:05;33.20;36.70
17415;DHT22;8825;48.086;16.426;2022-07-29T09:39:39;32.90;37.00
17415;DHT22;8825;48.086;16.426;2022-07-29T09:42:13;32.70;37.10
17415;DHT22;8825;48.086;16.426;2022-07-29T09:44:46;32.60;37.30
17415;DHT22;8825;48.086;16.426;2022-07-29T09:47:16;32.50;37.60
17415;DHT22;8825;48.086;16.426;2022-07-29T09:49:53;32.40;37.80
17415;DHT22;8825;48.086;16.426;2022-07-29T09:52:21;32.20;38.00
17415;DHT22;8825;48.086;16.426;2022-07-29T09:54:49;32.10;38.00
17415;DHT22;8825;48.086;16.426;2022-07-29T09:57:27;32.10;38.10
17415;DHT22;8825;48.086;16.426;2022-07-29T10:00:00;32.10;37.90
17415;DHT22;8825;48.086;16.426;2022-07-29T10:02:29;32.20;38.00
17415;DHT22;8825;48.086;16.426;2022-07-29T10:04:57;32.20;37.80
17415;DHT22;8825;48.086;16.426;2022-07-29T10:07:26;32.60;37.60
17415;DHT22;8825;48.086;16.426;2022-07-29T10:09:57;32.90;37.20
17415;DHT22;8825;48.086;16.426;2022-07-29T10:12:25;33.00;37.20
17415;DHT22;8825;48.086;16.426;2022-07-29T10:14:53;32.90;36.80
17415;DHT22;8825;48.086;16.426;2022-07-29T10:17:21;32.80;36.90
17415;DHT22;8825;48.086;16.426;2022-07-29T10:19:48;32.60;37.00
17415;DHT22;8825;48.086;16.426;2022-07-29T10:22:16;32.40;37.30
17415;DHT22;8825;48.086;16.426;2022-07-29T10:24:45;32.20;37.40
17415;DHT22;8825;48.086;16.426;2022-07-29T10:27:13;32.10;38.20
17415;DHT22;8825;48.086;16.426;2022-07-29T10:29:40;32.00;37.80
17415;DHT22;8825;48.086;16.426;2022-07-29T10:32:29;32.00;37.90
17415;DHT22;8825;48.086;16.426;2022-07-29T10:37:31;32.10;38.00
17415;DHT22;8825;48.086;16.426;2022-07-29T10:40:21;32.00;38.00
17415;DHT22;8825;48.086;16.426;2022-07-29T10:43:22;32.00;38.10
17415;DHT22;8825;48.086;16.426;2022-07-29T10:45:57;32.20;38.50
17415;DHT22;8825;48.086;16.426;2022-07-29T10:48:22;32.20;37.90
17415;DHT22;8825;48.086;16.426;2022-07-29T10:50:58;32.10;37.60
17415;DHT22;8825;48.086;16.426;2022-07-29T10:53:51;32.00;37.50
17415;DHT22;8825;48.086;16.426;2022-07-29T10:56:30;31.90;37.60
17415;DHT22;8825;48.086;16.426;2022-07-29T11:01:53;31.90;37.80
17415;DHT22;8825;48.086;16.426;2022-07-29T11:07:15;31.70;38.00
17415;DHT22;8825;48.086;16.426;2022-07-29T11:09:42;31.70;38.00
17415;DHT22;8825;48.086;16.426;2022-07-29T11:15:05;31.90;38.00
17415;DHT22;8825;48.086;16.426;2022-07-29T11:20:37;32.20;38.10
17415;DHT22;8825;48.086;16.426;2022-07-29T11:23:23;32.20;37.40
17415;DHT22;8825;48.086;16.426;2022-07-29T11:26:13;32.10;37.90
17415;DHT22;8825;48.086;16.426;2022-07-29T11:31:43;32.00;37.40
17415;DHT22;8825;48.086;16.426;2022-07-29T11:34:31;32.10;37.80
17415;DHT22;8825;48.086;16.426;2022-07-29T11:47:38;32.10;37.50
17415;DHT22;8825;48.086;16.426;2022-07-29T11:50:11;32.20;37.40
17415;DHT22;8825;48.086;16.426;2022-07-29T11:52:42;32.20;37.20
17415;DHT22;8825;48.086;16.426;2022-07-29T11:55:13;32.10;37.30
17415;DHT22;8825;48.086;16.426;2022-07-29T11:57:55;32.10;37.80
17415;DHT22;8825;48.086;16.426;2022-07-29T12:00:40;32.10;37.60
17415;DHT22;8825;48.086;16.426;2022-07-29T12:03:07;32.20;37.50
17415;DHT22;8825;48.086;16.426;2022-07-29T12:05:44;32.40;37.30
17415;DHT22;8825;48.086;16.426;2022-07-29T12:08:19;32.50;36.90
17415;DHT22;8825;48.086;16.426;2022-07-29T12:10:49;32.50;36.70
17415;DHT22;8825;48.086;16.426;2022-07-29T12:13:20;32.70;36.80
17415;DHT22;8825;48.086;16.426;2022-07-29T12:15:55;32.60;36.30
17415;DHT22;8825;48.086;16.426;2022-07-29T12:18:26;32.60;36.50
17415;DHT22;8825;48.086;16.426;2022-07-29T12:21:02;32.60;36.20
17415;DHT22;8825;48.086;16.426;2022-07-29T12:23:32;32.70;36.50
17415;DHT22;8825;48.086;16.426;2022-07-29T12:26:00;32.80;36.40
17415;DHT22;8825;48.086;16.426;2022-07-29T12:28:28;33.00;36.20
17415;DHT22;8825;48.086;16.426;2022-07-29T12:30:55;33.10;36.00
17415;DHT22;8825;48.086;16.426;2022-07-29T12:33:28;33.10;35.70
17415;DHT22;8825;48.086;16.426;2022-07-29T12:35:58;33.00;35.80
17415;DHT22;8825;48.086;16.426;2022-07-29T12:38:26;32.90;35.80
17415;DHT22;8825;48.086;16.426;2022-07-29T12:40:54;32.70;35.70
17415;DHT22;8825;48.086;16.426;2022-07-29T12:43:23;32.60;35.90
17415;DHT22;8825;48.086;16.426;2022-07-29T12:45:54;32.50;36.10
17415;DHT22;8825;48.086;16.426;2022-07-29T12:48:39;32.40;36.20
17415;DHT22;8825;48.086;16.426;2022-07-29T12:51:08;32.40;36.30
17415;DHT22;8825;48.086;16.426;2022-07-29T12:53:36;32.30;36.40
17415;DHT22;8825;48.086;16.426;2022-07-29T12:56:05;32.20;36.40
17415;DHT22;8825;48.086;16.426;2022-07-29T12:58:40;32.10;36.70
17415;DHT22;8825;48.086;16.426;2022-07-29T13:01:12;32.00;36.90
17415;DHT22;8825;48.086;16.426;2022-07-29T13:03:48;31.90;37.10
17415;DHT22;8825;48.086;16.426;2022-07-29T13:06:57;31.80;37.30
17415;DHT22;8825;48.086;16.426;2022-07-29T13:09:10;31.80;37.40
17415;DHT22;8825;48.086;16.426;2022-07-29T13:11:47;31.70;37.40
17415;DHT22;8825;48.086;16.426;2022-07-29T13:14:39;31.70;37.50
17415;DHT22;8825;48.086;16.426;2022-07-29T13:17:15;31.70;37.60
17415;DHT22;8825;48.086;16.426;2022-07-29T13:19:46;31.60;37.60
17415;DHT22;8825;48.086;16.426;2022-07-29T13:22:15;31.50;37.70
17415;DHT22;8825;48.086;16.426;2022-07-29T13:24:57;31.30;37.90
17415;DHT22;8825;48.086;16.426;2022-07-29T13:27:27;31.20;38.10
17415;DHT22;8825;48.086;16.426;2022-07-29T13:29:57;31.10;38.20
17415;DHT22;8825;48.086;16.426;2022-07-29T13:32:30;31.00;38.30
17415;DHT22;8825;48.086;16.426;2022-07-29T13:35:01;31.00;38.60
17415;DHT22;8825;48.086;16.426;2022-07-29T13:37:28;30.80;38.80
17415;DHT22;8825;48.086;16.426;2022-07-29T13:39:57;30.80;39.00
17415;DHT22;8825;48.086;16.426;2022-07-29T13:42:26;30.70;39.20
17415;DHT22;8825;48.086;16.426;2022-07-29T13:44:54;30.60;39.30
17415;DHT22;8825;48.086;16.426;2022-07-29T13:47:22;30.50;39.40
17415;DHT22;8825;48.086;16.426;2022-07-29T13:49:49;30.50;39.50
17415;DHT22;8825;48.086;16.426;2022-07-29T13:52:18;30.40;39.60
17415;DHT22;8825;48.086;16.426;2022-07-29T13:54:46;30.40;39.80
17415;DHT22;8825;48.086;16.426;2022-07-29T13:57:14;30.30;40.10
17415;DHT22;8825;48.086;16.426;2022-07-29T13:59:42;30.20;40.40
17415;DHT22;8825;48.086;16.426;2022-07-29T14:02:10;30.10;40.90
17415;DHT22;8825;48.086;16.426;2022-07-29T14:04:39;30.00;41.50
17415;DHT22;8825;48.086;16.426;2022-07-29T14:07:07;29.80;42.10
17415;DHT22;8825;48.086;16.426;2022-07-29T14:09:34;29.60;42.60
17415;DHT22;8825;48.086;16.426;2022-07-29T14:12:02;29.40;43.30
17415;DHT22;8825;48.086;16.426;2022-07-29T14:14:30;29.20;44.20
17415;DHT22;8825;48.086;16.426;2022-07-29T14:16:59;29.00;45.00
17415;DHT22;8825;48.086;16.426;2022-07-29T14:19:26;28.80;46.20
17415;DHT22;8825;48.086;16.426;2022-07-29T14:21:54;28.50;47.60
17415;DHT22;8825;48.086;16.426;2022-07-29T14:24:21;28.30;48.50
17415;DHT22;8825;48.086;16.426;2022-07-29T14:26:49;28.10;49.40
17415;DHT22;8825;48.086;16.426;2022-07-29T14:29:16;27.90;51.00
17415;DHT22;8825;48.086;16.426;2022-07-29T14:31:44;27.60;51.50
17415;DHT22;8825;48.086;16.426;2022-07-29T14:34:11;27.40;52.80
17415;DHT22;8825;48.086;16.426;2022-07-29T14:36:39;27.10;53.60
17415;DHT22;8825;48.086;16.426;2022-07-29T14:39:07;26.80;54.20
17415;DHT22;8825;48.086;16.426;2022-07-29T14:41:35;26.60;55.30
17415;DHT22;8825;48.086;16.426;2022-07-29T14:44:02;26.40;56.00
17415;DHT22;8825;48.086;16.426;2022-07-29T14:46:30;26.30;56.80
17415;DHT22;8825;48.086;16.426;2022-07-29T14:48:57;26.20;57.40
17415;DHT22;8825;48.086;16.426;2022-07-29T14:51:25;26.10;57.80
17415;DHT22;8825;48.086;16.426;2022-07-29T14:53:52;26.00;58.30
17415;DHT22;8825;48.086;16.426;2022-07-29T14:56:20;25.90;58.70
17415;DHT22;8825;48.086;16.426;2022-07-29T14:58:48;25.80;58.90
17415;DHT22;8825;48.086;16.426;2022-07-29T15:01:15;25.70;59.20
17415;DHT22;8825;48.086;16.426;2022-07-29T15:03:43;25.70;59.60
17415;DHT22;8825;48.086;16.426;2022-07-29T15:06:10;25.60;60.30
17415;DHT22;8825;48.086;16.426;2022-07-29T15:08:38;25.60;60.80
17415;DHT22;8825;48.086;16.426;2022-07-29T15:11:06;25.60;61.10
17415;DHT22;8825;48.086;16.426;2022-07-29T15:13:33;25.60;61.30
17415;DHT22;8825;48.086;16.426;2022-07-29T15:16:01;25.60;61.50
17415;DHT22;8825;48.086;16.426;2022-07-29T15:18:29;25.50;61.40
17415;DHT22;8825;48.086;16.426;2022-07-29T15:20:56;25.50;61.60
17415;DHT22;8825;48.086;16.426;2022-07-29T15:23:24;25.60;62.10
17415;DHT22;8825;48.086;16.426;2022-07-29T15:25:51;25.60;62.50
17415;DHT22;8825;48.086;16.426;2022-07-29T15:28:19;25.60;62.60
17415;DHT22;8825;48.086;16.426;2022-07-29T15:30:46;25.60;63.00
17415;DHT22;8825;48.086;16.426;2022-07-29T15:33:14;25.70;63.10
17415;DHT22;8825;48.086;16.426;2022-07-29T15:35:41;25.70;63.00
17415;DHT22;8825;48.086;16.426;2022-07-29T15:38:09;25.80;63.50
17415;DHT22;8825;48.086;16.426;2022-07-29T15:40:39;25.80;63.90
17415;DHT22;8825;48.086;16.426;2022-07-29T15:43:09;25.80;64.00
17415;DHT22;8825;48.086;16.426;2022-07-29T15:45:38;25.90;64.30
17415;DHT22;8825;48.086;16.426;2022-07-29T15:48:07;25.90;64.50
17415;DHT22;8825;48.086;16.426;2022-07-29T15:50:35;25.90;64.60
17415;DHT22;8825;48.086;16.426;2022-07-29T15:53:02;25.90;64.90
17415;DHT22;8825;48.086;16.426;2022-07-29T15:55:30;25.90;64.90
17415;DHT22;8825;48.086;16.426;2022-07-29T15:57:57;25.90;64.80
17415;DHT22;8825;48.086;16.426;2022-07-29T16:00:25;25.80;64.90
17415;DHT22;8825;48.086;16.426;2022-07-29T16:02:52;25.80;65.00
17415;DHT22;8825;48.086;16.426;2022-07-29T16:05:20;25.80;65.30
17415;DHT22;8825;48.086;16.426;2022-07-29T16:07:48;25.80;65.60
17415;DHT22;8825;48.086;16.426;2022-07-29T16:10:16;25.80;65.80
17415;DHT22;8825;48.086;16.426;2022-07-29T16:12:43;25.80;66.00
17415;DHT22;8825;48.086;16.426;2022-07-29T16:15:11;25.80;66.10
17415;DHT22;8825;48.086;16.426;2022-07-29T16:17:38;25.80;66.00
17415;DHT22;8825;48.086;16.426;2022-07-29T16:20:06;25.80;66.20
17415;DHT22;8825;48.086;16.426;2022-07-29T16:22:34;25.80;66.40
17415;DHT22;8825;48.086;16.426;2022-07-29T16:25:02;25.80;66.50